createdAt,value
2018-12-16T00:00:31.033Z,5.04
2018-12-16T00:01:29.632Z,5.07
2018-12-16T00:04:09.743Z,5.12
2018-12-16T00:05:08.636Z,5.15
2018-12-16T00:06:07.218Z,5.09
2018-12-16T00:07:05.729Z,5.12
2018-12-16T00:09:46.093Z,5.03
2018-12-16T00:10:44.793Z,5.04
2018-12-16T00:11:43.375Z,5.06
2018-12-16T00:12:42.065Z,5.12
2018-12-16T00:13:40.725Z,5.15
2018-12-16T00:16:03.683Z,5.1
2018-12-16T00:17:02.536Z,5.09
2018-12-16T00:18:01.133Z,5.1
2018-12-16T00:18:59.695Z,4.99
2018-12-16T00:21:39.911Z,5.03
2018-12-16T00:22:38.757Z,5.1
2018-12-16T00:23:37.254Z,5.13
2018-12-16T00:24:35.897Z,5.07
2018-12-16T00:25:34.740Z,5.13
2018-12-16T00:26:33.310Z,5.12
2018-12-16T00:27:31.816Z,5.09
2018-12-16T00:28:30.434Z,5.1
2018-12-16T00:29:29.031Z,4.99
2018-12-16T00:31:51.872Z,4.96
2018-12-16T00:32:50.538Z,4.94
2018-12-16T00:33:49.045Z,5.06
2018-12-16T00:34:47.604Z,5.04
2018-12-16T00:35:46.284Z,5.09
2018-12-16T00:36:44.833Z,5.1
2018-12-16T00:37:43.448Z,5.02
2018-12-16T00:38:42.176Z,5.1
2018-12-16T00:39:40.780Z,5.17
2018-12-16T00:40:39.348Z,5.12
2018-12-16T00:41:38.139Z,5.17
2018-12-16T00:42:36.747Z,5.18
2018-12-16T00:43:35.457Z,5.31
2018-12-16T00:44:34.227Z,5.17
2018-12-16T00:45:32.955Z,5.07
2018-12-16T00:46:31.457Z,5.07
2018-12-16T00:47:30.193Z,5.22
2018-12-16T00:48:28.928Z,5.15
2018-12-16T00:49:27.496Z,5.15
2018-12-16T00:50:26.269Z,5.07
2018-12-16T00:51:24.947Z,5.06
2018-12-16T00:52:23.562Z,5
2018-12-16T00:53:22.272Z,5.09
2018-12-16T00:56:02.647Z,5.07
2018-12-16T00:57:01.196Z,5.07
2018-12-16T00:57:59.812Z,5.09
2018-12-16T01:00:40.328Z,4.97
2018-12-16T01:01:38.898Z,5.07
2018-12-16T01:02:37.537Z,5.07
2018-12-16T01:03:36.392Z,5.17
2018-12-16T01:04:35.043Z,5.09
2018-12-16T01:05:33.730Z,5.03
2018-12-16T01:06:32.483Z,5.03
2018-12-16T01:07:31.046Z,4.91
2018-12-16T01:08:29.561Z,4.89
2018-12-16T01:09:28.340Z,4.92
2018-12-16T01:10:26.991Z,5
2018-12-16T01:11:25.508Z,5.03
2018-12-16T01:12:24.371Z,5.02
2018-12-16T01:13:23.011Z,5.12
2018-12-16T01:14:21.596Z,5.07
2018-12-16T01:15:20.091Z,5.13
2018-12-16T01:16:18.712Z,5.27
2018-12-16T01:17:17.357Z,5.17
2018-12-16T01:19:57.849Z,5.25
2018-12-16T01:20:56.617Z,5.35
2018-12-16T01:21:55.180Z,5.24
2018-12-16T01:22:53.907Z,5.22
2018-12-16T01:23:52.793Z,5.22
2018-12-16T01:24:51.306Z,5.24
2018-12-16T01:25:49.967Z,5.27
2018-12-16T01:26:48.685Z,5.22
2018-12-16T01:27:47.251Z,5.1
2018-12-16T01:28:45.998Z,5
2018-12-16T01:29:44.862Z,5.12
2018-12-16T01:30:43.378Z,5.15
2018-12-16T01:31:42.069Z,5.2
2018-12-16T01:32:40.750Z,5.2
2018-12-16T01:33:39.286Z,5.36
2018-12-16T01:34:37.866Z,5.22
2018-12-16T01:39:58.441Z,5.24
2018-12-16T01:43:57.587Z,5.24
2018-12-16T01:44:56.117Z,5.21
2018-12-16T01:45:54.709Z,5.28
2018-12-16T01:51:15.327Z,5.24
2018-12-16T01:52:13.844Z,5.38
2018-12-16T01:53:12.588Z,5.38
2018-12-16T01:54:11.170Z,5.33
2018-12-16T01:55:09.997Z,5.42
2018-12-16T01:56:08.778Z,5.46
2018-12-16T01:57:07.379Z,5.4
2018-12-16T01:58:06.540Z,5.3
2018-12-16T01:59:05.148Z,5.38
2018-12-16T02:19:40.133Z,5.28
2018-12-16T02:20:38.843Z,5.4
2018-12-16T02:21:37.399Z,5.27
2018-12-16T02:22:35.887Z,5.2
2018-12-16T02:23:34.476Z,5.3
2018-12-16T02:26:14.749Z,5.35
2018-12-16T02:27:13.381Z,5.39
2018-12-16T02:28:12.246Z,5.4
2018-12-16T02:33:17.710Z,5.24
2018-12-16T02:34:16.264Z,5.3
2018-12-16T02:35:14.817Z,5.28
2018-12-16T02:36:13.337Z,5.3
2018-12-16T02:37:11.870Z,5.35
2018-12-16T02:38:10.630Z,5.24
2018-12-16T02:39:09.130Z,5.36
2018-12-16T02:40:07.605Z,5.13
2018-12-16T02:41:06.574Z,5.06
2018-12-16T02:42:05.080Z,5.04
2018-12-16T02:43:03.634Z,5.17
2018-12-16T02:46:42.878Z,5.33
2018-12-16T02:47:41.417Z,5.31
2018-12-16T02:51:33.233Z,5.2
2018-12-16T02:52:31.752Z,5.24
2018-12-16T02:53:30.738Z,5.28
2018-12-16T02:54:29.305Z,5.38
2018-12-16T02:56:11.530Z,5.24
2018-12-16T02:57:09.405Z,5.24
2018-12-16T02:58:07.996Z,5.21
2018-12-16T03:00:48.013Z,5.22
2018-12-16T03:01:48.705Z,5.25
2018-12-16T03:02:47.262Z,5.25
2018-12-16T03:03:45.772Z,5.35
2018-12-16T03:04:44.674Z,5.27
2018-12-16T03:05:43.218Z,5.27
2018-12-16T03:06:41.703Z,5.39
2018-12-16T03:07:40.443Z,5.39
2018-12-16T03:08:39.051Z,5.35
2018-12-16T03:09:37.615Z,5.39
2018-12-16T03:10:36.382Z,5.36
2018-12-16T03:11:35.079Z,5.35
2018-12-16T03:12:34.490Z,5.38
2018-12-16T03:16:13.410Z,5.42
2018-12-16T03:17:11.954Z,5.35
2018-12-16T03:18:10.506Z,5.22
2018-12-16T03:20:50.885Z,5.06
2018-12-16T03:21:49.481Z,5.12
2018-12-16T03:23:31.021Z,5.02
2018-12-16T03:24:29.548Z,5.02
2018-12-16T03:25:28.268Z,5.17
2018-12-16T03:26:26.825Z,5.07
2018-12-16T03:27:25.407Z,5.22
2018-12-16T03:28:23.978Z,5.2
2018-12-16T03:29:22.530Z,5.13
2018-12-16T03:30:23.321Z,5.1
2018-12-16T03:31:19.581Z,5.18
2018-12-16T03:32:18.348Z,5.18
2018-12-16T03:33:16.966Z,5.24
2018-12-16T03:34:15.479Z,5.25
2018-12-16T03:35:14.396Z,5.13
2018-12-16T03:36:13.010Z,5.09
2018-12-16T03:37:11.596Z,5.03
2018-12-16T03:38:10.139Z,5.03
2018-12-16T03:39:08.647Z,5.02
2018-12-16T03:40:07.201Z,4.97
2018-12-16T03:41:05.726Z,4.94
2018-12-16T03:42:04.250Z,4.66
2018-12-16T03:43:02.834Z,4.59
2018-12-16T03:44:01.500Z,4.69
2018-12-16T03:45:00.184Z,4.7
2018-12-16T03:45:58.832Z,4.84
2018-12-16T03:46:57.417Z,4.7
2018-12-16T03:47:56.098Z,4.75
2018-12-16T03:48:54.808Z,4.44
2018-12-16T03:49:53.343Z,4.51
2018-12-16T03:50:52.221Z,4.6
2018-12-16T03:51:50.964Z,4.59
2018-12-16T03:52:49.508Z,4.65
2018-12-16T03:56:28.227Z,4.45
2018-12-16T03:57:26.900Z,4.54
2018-12-16T03:58:25.472Z,4.7
2018-12-16T03:59:24.221Z,4.6
2018-12-16T04:00:22.845Z,4.54
2018-12-16T04:01:21.464Z,4.6
2018-12-16T04:02:20.265Z,4.54
2018-12-16T04:03:18.932Z,4.59
2018-12-16T04:04:17.509Z,4.51
2018-12-16T04:05:16.021Z,4.36
2018-12-16T04:06:14.570Z,4.55
2018-12-16T04:08:54.978Z,4.58
2018-12-16T04:09:53.541Z,4.54
2018-12-16T04:10:52.220Z,4.59
2018-12-16T04:11:50.859Z,4.6
2018-12-16T04:12:49.378Z,4.69
2018-12-16T04:13:47.903Z,4.7
2018-12-16T04:14:46.476Z,4.75
2018-12-16T04:15:45.224Z,4.67
2018-12-16T04:16:43.725Z,4.47
2018-12-16T04:17:42.400Z,4.54
2018-12-16T04:18:41.170Z,4.41
2018-12-16T04:19:39.845Z,4.48
2018-12-16T04:20:38.529Z,4.6
2018-12-16T04:21:37.095Z,4.62
2018-12-16T04:22:35.682Z,4.51
2018-12-16T04:25:15.846Z,4.4
2018-12-16T04:26:14.748Z,4.52
2018-12-16T04:27:13.270Z,4.52
2018-12-16T04:28:11.947Z,4.58
2018-12-16T04:29:10.575Z,4.42
2018-12-16T04:30:09.114Z,4.26
2018-12-16T04:32:49.446Z,4.41
2018-12-16T04:33:48.336Z,4.5
2018-12-16T04:34:47.058Z,4.58
2018-12-16T04:45:39.254Z,4.41
2018-12-16T04:49:18.092Z,4.7
2018-12-16T04:50:16.668Z,4.67
2018-12-16T04:51:15.181Z,4.66
2018-12-16T04:52:13.890Z,4.59
2018-12-16T04:53:12.751Z,4.55
2018-12-16T04:54:11.333Z,4.58
2018-12-16T04:55:09.964Z,4.7
2018-12-16T04:56:08.643Z,4.62
2018-12-16T04:57:07.188Z,4.59
2018-12-16T04:58:05.728Z,4.62
2018-12-16T04:59:04.235Z,4.5
2018-12-16T05:00:02.763Z,4.51
2018-12-16T05:01:01.270Z,4.59
2018-12-16T05:01:59.813Z,4.59
2018-12-16T05:02:58.505Z,4.36
2018-12-16T05:03:56.997Z,4.41
2018-12-16T05:04:55.505Z,4.34
2018-12-16T05:05:54.504Z,4.41
2018-12-16T05:06:52.991Z,4.32
2018-12-16T05:07:51.521Z,4.33
2018-12-16T05:08:50.324Z,4.45
2018-12-16T05:09:48.938Z,4.29
2018-12-16T05:10:47.439Z,4.15
2018-12-16T05:11:45.991Z,4.2
2018-12-16T05:12:44.814Z,4.14
2018-12-16T05:13:43.412Z,4.29
2018-12-16T05:14:42.314Z,4.29
2018-12-16T05:15:40.947Z,4.42
2018-12-16T05:16:39.537Z,4.41
2018-12-16T05:17:38.276Z,4.16
2018-12-16T05:18:37.008Z,4.23
2018-12-16T05:19:35.536Z,4.22
2018-12-16T05:20:34.355Z,4.27
2018-12-16T05:21:32.959Z,4.41
2018-12-16T05:22:31.536Z,4.32
2018-12-16T05:23:30.125Z,4.22
2018-12-16T05:24:28.666Z,4.29
2018-12-16T05:25:27.237Z,4.4
2018-12-16T05:26:26.010Z,4.29
2018-12-16T05:27:24.813Z,4.27
2018-12-16T05:28:23.355Z,4.41
2018-12-16T05:29:22.002Z,4.3
2018-12-16T05:30:20.629Z,4.4
2018-12-16T05:31:19.201Z,4.41
2018-12-16T05:32:17.818Z,4.29
2018-12-16T05:33:16.586Z,4.3
2018-12-16T05:34:15.129Z,4.3
2018-12-16T05:37:54.149Z,4.37
2018-12-16T05:38:52.772Z,4.32
2018-12-16T05:39:51.287Z,4.12
2018-12-16T05:40:49.793Z,4.32
2018-12-16T05:41:48.331Z,4.37
2018-12-16T05:42:46.895Z,4.34
2018-12-16T05:43:45.453Z,4.22
2018-12-16T05:44:44.246Z,4.11
2018-12-16T05:45:42.972Z,4.05
2018-12-16T05:46:41.491Z,4.05
2018-12-16T05:50:20.341Z,4.32
2018-12-16T05:51:18.897Z,4.47
2018-12-16T05:52:17.409Z,4.41
2018-12-16T05:53:16.183Z,4.48
2018-12-16T05:54:14.975Z,4.52
2018-12-16T05:55:13.470Z,4.54
2018-12-16T05:56:12.206Z,4.52
2018-12-16T06:06:18.795Z,4.6
2018-12-16T06:07:17.304Z,4.59
2018-12-16T06:08:15.939Z,4.65
2018-12-16T06:09:14.562Z,4.75
2018-12-16T06:10:13.106Z,4.73
2018-12-16T06:11:11.650Z,4.73
2018-12-16T06:12:10.201Z,4.73
2018-12-16T06:13:08.748Z,4.8
2018-12-16T06:14:07.314Z,4.8
2018-12-16T06:15:06.044Z,4.77
2018-12-16T06:16:04.816Z,4.91
2018-12-16T06:17:03.321Z,4.89
2018-12-16T06:18:02.079Z,4.73
2018-12-16T06:19:00.697Z,4.77
2018-12-16T06:19:59.216Z,4.86
2018-12-16T06:22:39.271Z,4.88
2018-12-16T06:23:37.794Z,4.91
2018-12-16T06:24:36.328Z,4.97
2018-12-16T06:25:34.885Z,5.03
2018-12-16T06:26:33.463Z,5
2018-12-16T06:27:32.272Z,4.92
2018-12-16T06:28:31.673Z,4.82
2018-12-16T06:29:30.600Z,4.78
2018-12-16T06:30:29.139Z,4.84
2018-12-16T06:31:27.723Z,4.85
2018-12-16T06:32:26.383Z,4.88
2018-12-16T06:33:24.951Z,4.73
2018-12-16T06:34:23.532Z,4.91
2018-12-16T06:35:22.287Z,4.92
2018-12-16T06:38:02.661Z,4.84
2018-12-16T06:39:01.219Z,4.52
2018-12-16T06:39:59.800Z,4.45
2018-12-16T06:40:58.393Z,4.42
2018-12-16T06:41:57.037Z,4.24
2018-12-16T06:42:55.579Z,4.15
2018-12-16T06:43:54.754Z,4.08
2018-12-16T06:44:53.274Z,4.08
2018-12-16T06:45:51.835Z,4.2
2018-12-16T06:46:50.437Z,4.42
2018-12-16T06:49:30.774Z,4.32
2018-12-16T06:50:29.320Z,4
2018-12-16T06:51:27.825Z,4.02
2018-12-16T06:52:26.741Z,4.11
2018-12-16T06:53:25.315Z,4.06
2018-12-16T06:54:23.881Z,4.05
2018-12-16T06:55:22.481Z,3.97
2018-12-16T06:56:21.062Z,3.98
2018-12-16T06:57:19.636Z,3.98
2018-12-16T06:58:18.419Z,4.11
2018-12-16T06:59:17.143Z,4.18
2018-12-16T07:00:15.878Z,4.18
2018-12-16T07:01:16.017Z,4.2
2018-12-16T07:02:13.160Z,4.22
2018-12-16T07:03:11.678Z,4.33
2018-12-16T07:04:10.367Z,4.32
2018-12-16T07:05:10.949Z,4.27
2018-12-16T07:07:51.187Z,4.41
2018-12-16T07:10:14.198Z,4.15
2018-12-16T07:11:12.844Z,4.08
2018-12-16T07:12:11.408Z,4.05
2018-12-16T07:13:10.306Z,4.22
2018-12-16T07:14:08.951Z,4.14
2018-12-16T07:15:07.607Z,4.2
2018-12-16T07:16:06.099Z,4.15
2018-12-16T07:17:04.868Z,4.22
2018-12-16T07:18:03.557Z,4.36
2018-12-16T07:19:02.402Z,4.47
2018-12-16T07:20:01.368Z,4.48
2018-12-16T07:20:59.757Z,4.54
2018-12-16T07:21:58.434Z,4.59
2018-12-16T07:22:57.073Z,4.62
2018-12-16T07:23:55.638Z,4.69
2018-12-16T07:24:54.468Z,4.63
2018-12-16T07:25:53.029Z,4.51
2018-12-16T07:28:33.815Z,4.55
2018-12-16T07:29:32.587Z,4.62
2018-12-16T07:30:31.212Z,4.59
2018-12-16T07:31:29.925Z,4.59
2018-12-16T07:32:28.914Z,4.5
2018-12-16T07:33:27.496Z,4.58
2018-12-16T07:34:26.029Z,4.65
2018-12-16T07:35:24.696Z,4.58
2018-12-16T07:36:23.263Z,4.52
2018-12-16T07:37:21.820Z,4.42
2018-12-16T07:38:20.651Z,4.6
2018-12-16T07:39:19.331Z,4.44
2018-12-16T07:40:18.038Z,4.52
2018-12-16T07:41:16.780Z,4.47
2018-12-16T07:42:15.377Z,4.5
2018-12-16T07:43:13.907Z,4.5
2018-12-16T07:44:12.454Z,4.34
2018-12-16T07:45:11.028Z,4.52
2018-12-16T07:46:09.600Z,4.6
2018-12-16T07:49:48.909Z,4.58
2018-12-16T07:52:29.067Z,4.66
2018-12-16T07:53:27.638Z,4.72
2018-12-16T07:54:26.415Z,4.72
2018-12-16T07:55:25.039Z,4.65
2018-12-16T07:58:05.319Z,4.58
2018-12-16T07:59:03.852Z,4.55
2018-12-16T08:00:02.498Z,4.52
2018-12-16T08:01:01.071Z,4.58
2018-12-16T08:01:59.753Z,4.52
2018-12-16T08:02:58.614Z,4.47
2018-12-16T08:03:57.193Z,4.54
2018-12-16T08:04:55.796Z,4.59
2018-12-16T08:05:54.384Z,4.58
2018-12-16T08:06:52.869Z,4.6
2018-12-16T08:07:51.409Z,4.6
2018-12-16T08:08:49.994Z,4.55
2018-12-16T08:09:48.637Z,4.52
2018-12-16T08:10:47.047Z,4.48
2018-12-16T08:11:45.606Z,4.41
2018-12-16T08:12:44.283Z,4.51
2018-12-16T08:13:43.048Z,4.55
2018-12-16T08:16:23.103Z,4.33
2018-12-16T08:17:21.698Z,4.4
2018-12-16T08:18:20.478Z,4.45
2018-12-16T08:19:19.031Z,4.54
2018-12-16T08:20:17.554Z,4.52
2018-12-16T08:21:16.325Z,4.5
2018-12-16T08:23:56.897Z,4.41
2018-12-16T08:24:55.649Z,4.36
2018-12-16T08:25:54.424Z,4.44
2018-12-16T08:44:57.848Z,4.22
2018-12-16T08:45:56.545Z,4.26
2018-12-16T08:46:55.488Z,4.4
2018-12-16T08:47:56.300Z,4.42
2018-12-16T08:50:36.455Z,4.42
2018-12-16T08:51:35.927Z,4.63
2018-12-16T08:52:36.070Z,4.48
2018-12-16T08:53:35.640Z,4.54
2018-12-16T08:54:34.783Z,4.62
2018-12-16T08:55:33.324Z,4.63
2018-12-16T08:56:32.106Z,4.73
2018-12-16T08:57:31.375Z,4.75
2018-12-16T09:00:10.918Z,4.94
2018-12-16T09:02:10.785Z,4.97
2018-12-16T09:03:10.091Z,4.91
2018-12-16T09:04:09.375Z,5.03
2018-12-16T09:05:07.685Z,4.77
2018-12-16T09:06:07.819Z,4.72
2018-12-16T09:07:07.081Z,4.84
2018-12-16T09:08:05.656Z,5
2018-12-16T09:09:04.451Z,4.97
2018-12-16T09:10:47.968Z,5
2018-12-16T09:11:46.632Z,5
2018-12-16T09:13:41.246Z,5.1
2018-12-16T09:14:39.803Z,5.04
2018-12-16T09:15:38.753Z,5.21
2018-12-16T09:16:37.258Z,5.2
2018-12-16T09:17:37.091Z,5.2
2018-12-16T09:20:17.261Z,5.12
2018-12-16T09:21:20.721Z,5.21
2018-12-16T09:22:19.312Z,5.09
2018-12-16T09:25:00.289Z,4.91
2018-12-16T09:25:59.022Z,4.94
2018-12-16T09:26:57.596Z,5.15
2018-12-16T09:29:38.032Z,5.27
2018-12-16T09:30:36.831Z,5.18
2018-12-16T09:31:38.272Z,5.06
2018-12-16T09:48:35.508Z,4.75
2018-12-16T09:49:34.309Z,4.72
2018-12-16T09:50:33.078Z,4.77
2018-12-16T09:52:20.546Z,5
2018-12-16T09:53:19.316Z,5.1
2018-12-16T09:54:17.853Z,5.12
2018-12-16T09:55:16.581Z,5.12
2018-12-16T09:56:15.208Z,5.12
2018-12-16T09:57:13.930Z,5.12
2018-12-16T10:00:52.843Z,5.24
2018-12-16T10:01:51.445Z,5.24
2018-12-16T10:02:50.111Z,5.2
2018-12-16T10:03:48.912Z,5.25
2018-12-16T10:04:47.483Z,5.06
2018-12-16T10:05:46.085Z,5.21
2018-12-16T10:06:44.766Z,5.25
2018-12-16T10:07:43.299Z,5.17
2018-12-16T10:08:41.851Z,5.33
2018-12-16T10:09:40.623Z,5.36
2018-12-16T10:10:39.347Z,5.21
2018-12-16T10:11:37.836Z,5.27
2018-12-16T10:12:36.693Z,5.27
2018-12-16T10:13:35.257Z,5.42
2018-12-16T10:14:33.835Z,5.22
2018-12-16T10:15:32.432Z,5.28
2018-12-16T10:16:31.080Z,5.27
2018-12-16T10:17:29.763Z,5.25
2018-12-16T10:18:28.730Z,5.18
2018-12-16T10:19:27.320Z,5.28
2018-12-16T10:20:25.896Z,5.17
2018-12-16T10:21:24.894Z,5.02
2018-12-16T10:22:23.464Z,5.09
2018-12-16T10:23:22.326Z,5.2
2018-12-16T10:24:21.024Z,5.39
2018-12-16T10:25:19.608Z,5.43
2018-12-16T10:26:18.140Z,5.4
2018-12-16T10:28:41.962Z,5.45
2018-12-16T10:29:41.624Z,5.48
2018-12-16T10:30:40.425Z,5.53
2018-12-16T10:31:38.982Z,5.48
2018-12-16T10:32:37.544Z,5.51
2018-12-16T10:33:36.114Z,5.49
2018-12-16T10:34:34.776Z,5.43
2018-12-16T10:35:33.346Z,5.63
2018-12-16T10:36:31.834Z,5.71
2018-12-16T10:37:30.831Z,5.72
2018-12-16T10:38:29.430Z,5.79
2018-12-16T10:39:28.085Z,5.86
2018-12-16T10:40:26.605Z,5.68
2018-12-16T10:41:25.155Z,5.75
2018-12-16T10:42:23.700Z,5.81
2018-12-16T10:43:22.403Z,5.83
2018-12-16T10:44:21.376Z,5.9
2018-12-16T10:45:20.026Z,5.96
2018-12-16T10:49:04.630Z,5.82
2018-12-16T10:49:58.173Z,5.85
2018-12-16T10:50:57.064Z,5.82
2018-12-16T10:51:56.133Z,5.81
2018-12-16T10:52:54.512Z,5.83
2018-12-16T10:53:53.160Z,5.85
2018-12-16T10:54:58.097Z,5.78
2018-12-16T10:55:50.680Z,5.89
2018-12-16T11:17:28.324Z,6.4
2018-12-16T11:18:26.902Z,6.37
2018-12-16T11:19:25.402Z,6.27
2018-12-16T11:20:23.942Z,6.31
2018-12-16T11:21:22.451Z,6.31
2018-12-16T11:22:21.493Z,6.38
2018-12-16T11:23:20.465Z,6.41
2018-12-16T11:24:19.122Z,6.27
2018-12-16T11:25:17.730Z,6.06
2018-12-16T11:27:58.407Z,6.25
2018-12-16T11:28:57.005Z,6.33
2018-12-16T11:29:55.591Z,6.38
2018-12-16T11:30:54.328Z,6.22
2018-12-16T11:31:53.111Z,6.27
2018-12-16T11:32:51.692Z,6.33
2018-12-16T11:33:50.524Z,6.43
2018-12-16T11:34:49.229Z,6.37
2018-12-16T11:35:47.820Z,6.21
2018-12-16T11:36:46.780Z,6.34
2018-12-16T11:39:27.431Z,6.44
2018-12-16T11:40:26.155Z,6.43
2018-12-16T11:41:24.840Z,6.54
2018-12-16T11:42:23.390Z,6.4
2018-12-16T11:43:21.936Z,6.52
2018-12-16T11:44:20.552Z,6.55
2018-12-16T11:45:19.129Z,6.61
2018-12-16T11:46:17.774Z,6.49
2018-12-16T11:47:17.317Z,6.43
2018-12-16T11:48:15.363Z,6.41
2018-12-16T11:49:13.912Z,6.43
2018-12-16T11:50:12.629Z,6.41
2018-12-16T11:51:11.339Z,6.3
2018-12-16T11:52:09.888Z,6.46
2018-12-16T11:53:09.001Z,6.31
2018-12-16T11:54:07.626Z,6.34
2018-12-16T11:55:12.492Z,6.28
2018-12-16T11:56:04.886Z,6.21
2018-12-16T11:58:45.116Z,6.41
2018-12-16T11:59:43.653Z,6.36
2018-12-16T12:00:42.714Z,6.52
2018-12-16T12:01:41.167Z,6.41
2018-12-16T12:02:40.034Z,6.52
2018-12-16T12:03:39.030Z,6.48
2018-12-16T12:04:37.611Z,6.46
2018-12-16T12:05:36.251Z,6.61
2018-12-16T12:09:15.334Z,6.61
2018-12-16T12:10:14.203Z,6.56
2018-12-16T12:11:12.974Z,6.66
2018-12-16T12:12:11.511Z,6.56
2018-12-16T12:13:10.104Z,6.46
2018-12-16T12:14:09.001Z,6.44
2018-12-16T12:15:08.061Z,6.51
2018-12-16T12:16:06.986Z,6.51
2018-12-16T12:17:05.617Z,6.49
2018-12-16T12:37:37.011Z,6.49
2018-12-16T12:38:35.621Z,6.37
2018-12-16T12:39:34.570Z,6.37
2018-12-16T12:40:33.128Z,6.44
2018-12-16T12:41:31.725Z,6.48
2018-12-16T12:42:30.605Z,6.43
2018-12-16T12:43:29.017Z,6.33
2018-12-16T12:44:27.582Z,6.4
2018-12-16T12:45:26.545Z,6.48
2018-12-16T12:46:25.247Z,6.64
2018-12-16T12:47:23.860Z,6.58
2018-12-16T12:48:22.527Z,6.55
2018-12-16T12:49:21.415Z,6.61
2018-12-16T12:50:20.059Z,6.61
2018-12-16T12:51:18.977Z,6.62
2018-12-16T12:52:17.677Z,6.61
2018-12-16T12:53:16.561Z,6.58
2018-12-16T12:54:15.287Z,6.48
2018-12-16T12:55:13.787Z,6.54
2018-12-16T12:56:12.334Z,6.55
2018-12-16T12:57:10.976Z,6.37
2018-12-16T12:58:10.436Z,6.41
2018-12-16T12:59:09.045Z,6.4
2018-12-16T13:00:07.593Z,6.46
2018-12-16T13:01:06.907Z,6.48
2018-12-16T13:02:05.450Z,6.43
2018-12-16T13:03:03.977Z,6.46
2018-12-16T13:04:02.553Z,6.54
2018-12-16T13:05:01.133Z,6.4
2018-12-16T13:05:59.689Z,6.41
2018-12-16T13:06:58.386Z,6.49
2018-12-16T13:07:57.274Z,6.61
2018-12-16T13:08:55.932Z,6.56
2018-12-16T13:09:54.626Z,6.64
2018-12-16T13:10:53.419Z,6.64
2018-12-16T13:11:52.189Z,6.64
2018-12-16T13:12:50.842Z,6.62
2018-12-16T13:13:49.573Z,6.61
2018-12-16T13:14:48.139Z,6.69
2018-12-16T13:15:48.402Z,6.67
2018-12-16T13:16:47.187Z,6.79
2018-12-16T13:17:45.754Z,6.79
2018-12-16T13:18:44.275Z,6.7
2018-12-16T13:19:42.830Z,6.71
2018-12-16T13:20:41.577Z,6.74
2018-12-16T13:21:40.515Z,6.71
2018-12-16T13:22:39.214Z,6.69
2018-12-16T13:23:37.777Z,6.64
2018-12-16T13:24:36.299Z,6.8
2018-12-16T13:25:35.692Z,6.79
2018-12-16T13:26:33.567Z,6.8
2018-12-16T13:27:32.122Z,6.84
2018-12-16T13:28:30.986Z,6.74
2018-12-16T13:31:11.357Z,6.88
2018-12-16T13:32:10.036Z,6.8
2018-12-16T13:33:08.958Z,6.87
2018-12-16T13:34:07.531Z,6.94
2018-12-16T13:35:06.109Z,6.8
2018-12-16T13:36:04.833Z,6.84
2018-12-16T13:37:03.454Z,6.99
2018-12-16T13:38:02.169Z,6.95
2018-12-16T13:39:01.035Z,6.87
2018-12-16T13:39:59.573Z,6.79
2018-12-16T13:40:58.192Z,6.74
2018-12-16T13:41:56.816Z,6.67
2018-12-16T13:42:55.467Z,6.67
2018-12-16T13:43:54.206Z,6.51
2018-12-16T13:44:53.216Z,6.52
2018-12-16T13:45:51.773Z,6.48
2018-12-16T13:46:50.346Z,6.46
2018-12-16T13:47:49.133Z,6.38
2018-12-16T13:48:47.692Z,6.21
2018-12-16T13:49:46.392Z,6.43
2018-12-16T13:50:45.108Z,6.43
2018-12-16T13:51:43.620Z,6.51
2018-12-16T13:52:43.170Z,6.55
2018-12-16T13:53:42.140Z,6.46
2018-12-16T13:54:40.334Z,6.36
2018-12-16T13:55:40.952Z,6.34
2018-12-16T13:56:37.558Z,6.4
2018-12-16T13:57:36.068Z,6.36
2018-12-16T13:58:35.003Z,6.31
2018-12-16T13:59:33.695Z,6.31
2018-12-16T14:00:32.433Z,6.31
2018-12-16T14:01:31.331Z,6.34
2018-12-16T14:02:31.381Z,6.37
2018-12-16T14:03:29.971Z,6.43
2018-12-16T14:04:28.618Z,6.33
2018-12-16T14:05:27.254Z,6.38
2018-12-16T14:06:26.025Z,6.37
2018-12-16T14:07:25.058Z,6.34
2018-12-16T14:08:23.610Z,6.34
2018-12-16T14:09:22.176Z,6.37
2018-12-16T14:10:20.738Z,6.44
2018-12-16T14:19:44.532Z,6.61
2018-12-16T14:20:43.100Z,6.58
2018-12-16T14:21:41.884Z,6.67
2018-12-16T14:22:40.917Z,6.76
2018-12-16T14:23:39.535Z,6.67
2018-12-16T14:24:38.984Z,6.69
2018-12-16T14:27:19.060Z,6.71
2018-12-16T14:28:18.170Z,6.76
2018-12-16T14:29:17.011Z,6.8
2018-12-16T14:30:16.177Z,6.76
2018-12-16T14:31:14.975Z,6.7
2018-12-16T14:32:13.595Z,6.77
2018-12-16T14:33:12.283Z,6.74
2018-12-16T14:34:11.181Z,6.8
2018-12-16T14:35:09.749Z,6.81
2018-12-16T14:37:32.449Z,6.92
2018-12-16T14:38:31.940Z,6.88
2018-12-16T14:39:30.452Z,6.95
2018-12-16T14:40:29.002Z,6.88
2018-12-16T14:41:27.534Z,6.92
2018-12-16T14:42:26.225Z,6.91
2018-12-16T14:43:24.905Z,6.97
2018-12-16T14:44:23.736Z,6.92
2018-12-16T14:45:22.509Z,6.95
2018-12-16T14:46:21.035Z,6.99
2018-12-16T14:47:19.868Z,6.98
2018-12-16T14:48:18.849Z,6.89
2018-12-16T14:49:17.530Z,6.98
2018-12-16T14:50:16.095Z,6.88
2018-12-16T14:51:14.896Z,6.88
2018-12-16T14:52:13.760Z,6.99
2018-12-16T14:53:12.472Z,6.88
2018-12-16T14:54:11.081Z,6.92
2018-12-16T14:55:10.839Z,6.95
2018-12-16T14:56:09.414Z,7.02
2018-12-16T14:57:07.963Z,6.99
2018-12-16T14:58:07.098Z,7.06
2018-12-16T14:59:05.681Z,7.12
2018-12-16T15:00:04.199Z,7.05
2018-12-16T15:01:02.759Z,6.99
2018-12-16T15:02:01.305Z,7.07
2018-12-16T15:02:59.892Z,7.12
2018-12-16T15:03:58.677Z,7.09
2018-12-16T15:04:57.717Z,7.1
2018-12-16T15:05:56.783Z,7.12
2018-12-16T15:06:55.701Z,7.24
2018-12-16T15:07:54.885Z,7.17
2018-12-16T15:10:35.300Z,7.13
2018-12-16T15:11:33.987Z,7.2
2018-12-16T15:12:32.780Z,7.13
2018-12-16T15:38:56.328Z,7.13
2018-12-16T15:39:55.202Z,7.09
2018-12-16T15:40:53.741Z,7.07
2018-12-16T15:41:52.605Z,7.17
2018-12-16T15:42:51.726Z,7.13
2018-12-16T15:43:50.638Z,7.16
2018-12-16T15:44:49.248Z,7.23
2018-12-16T15:45:47.785Z,7.2
2018-12-16T15:46:46.616Z,7.17
2018-12-16T15:47:45.340Z,7.21
2018-12-16T15:48:43.939Z,7.17
2018-12-16T15:49:42.896Z,7.15
2018-12-16T15:50:41.414Z,7.06
2018-12-16T15:51:40.005Z,7.1
2018-12-16T15:52:39.037Z,7.25
2018-12-16T15:53:39.820Z,7.28
2018-12-16T15:54:38.750Z,7.16
2018-12-16T15:55:37.365Z,7.21
2018-12-16T15:56:36.029Z,7.25
2018-12-16T15:57:34.695Z,7.23
2018-12-16T15:58:34.262Z,7.2
2018-12-16T15:59:32.835Z,7.28
2018-12-16T16:00:31.435Z,7.32
2018-12-16T16:01:30.073Z,7.3
2018-12-16T16:02:28.770Z,7.27
2018-12-16T16:03:27.417Z,7.25
2018-12-16T16:04:25.973Z,7.25
2018-12-16T16:05:24.980Z,7.31
2018-12-16T16:06:23.625Z,7.2
2018-12-16T16:07:22.352Z,7.23
2018-12-16T16:08:21.185Z,7.17
2018-12-16T16:09:19.741Z,7.28
2018-12-16T16:10:18.924Z,7.31
2018-12-16T16:11:17.546Z,7.16
2018-12-16T16:12:16.283Z,7.28
2018-12-16T16:13:14.878Z,7.27
2018-12-16T16:14:13.483Z,7.17
2018-12-16T16:15:12.077Z,7.15
2018-12-16T16:16:10.660Z,7.09
2018-12-16T16:17:09.225Z,7.1
2018-12-16T16:18:07.791Z,7.16
2018-12-16T16:19:06.492Z,7.15
2018-12-16T16:20:05.181Z,7.1
2018-12-16T16:21:03.724Z,7.24
2018-12-16T16:22:02.382Z,7.23
2018-12-16T16:23:01.113Z,7.17
2018-12-16T16:23:59.687Z,7.17
2018-12-16T16:24:58.281Z,7.27
2018-12-16T16:25:57.101Z,7.27
2018-12-16T16:26:55.696Z,7.24
2018-12-16T16:27:54.579Z,7.28
2018-12-16T16:28:53.468Z,7.3
2018-12-16T16:29:51.987Z,7.34
2018-12-16T16:30:50.935Z,7.45
2018-12-16T16:31:49.559Z,7.45
2018-12-16T16:32:48.129Z,7.28
2018-12-16T16:33:46.886Z,7.42
2018-12-16T16:34:45.442Z,7.48
2018-12-16T16:35:43.974Z,7.28
2018-12-16T16:36:42.766Z,7.28
2018-12-16T16:37:41.613Z,7.45
2018-12-16T16:38:40.247Z,7.43
2018-12-16T16:39:39.020Z,7.37
2018-12-16T16:40:37.903Z,7.4
2018-12-16T16:41:36.935Z,7.4
2018-12-16T16:42:35.506Z,7.37
2018-12-16T16:43:34.300Z,7.42
2018-12-16T16:44:33.160Z,7.45
2018-12-16T16:45:33.785Z,7.39
2018-12-16T16:46:33.186Z,7.49
2018-12-16T16:47:31.998Z,7.42
2018-12-16T16:48:30.575Z,7.42
2018-12-16T16:49:29.084Z,7.42
2018-12-16T16:50:27.596Z,7.35
2018-12-16T16:53:07.562Z,7.43
2018-12-16T16:54:06.108Z,7.55
2018-12-16T16:55:04.826Z,7.45
2018-12-16T16:56:03.569Z,7.46
2018-12-16T16:57:02.315Z,7.48
2018-12-16T16:58:01.074Z,7.58
2018-12-16T16:58:59.697Z,7.48
2018-12-16T16:59:58.433Z,7.55
2018-12-16T17:00:57.244Z,7.45
2018-12-16T17:01:55.845Z,7.53
2018-12-16T17:02:54.685Z,7.57
2018-12-16T17:03:53.283Z,7.45
2018-12-16T17:04:51.849Z,7.53
2018-12-16T17:05:50.496Z,7.58
2018-12-16T17:06:49.490Z,7.58
2018-12-16T17:07:48.040Z,7.58
2018-12-16T17:08:46.687Z,7.49
2018-12-16T17:09:45.308Z,7.49
2018-12-16T17:10:43.841Z,7.5
2018-12-16T17:11:42.550Z,7.58
2018-12-16T17:12:41.318Z,7.64
2018-12-16T17:13:39.935Z,7.5
2018-12-16T17:14:38.612Z,7.55
2018-12-16T17:15:37.287Z,7.68
2018-12-16T17:16:35.820Z,7.68
2018-12-16T17:18:19.377Z,7.55
2018-12-16T17:19:17.934Z,7.53
2018-12-16T17:20:17.006Z,7.53
2018-12-16T17:21:15.551Z,7.53
2018-12-16T17:22:14.106Z,7.5
2018-12-16T17:23:12.706Z,7.52
2018-12-16T17:24:11.335Z,7.58
2018-12-16T17:25:09.836Z,7.53
2018-12-16T17:26:08.631Z,7.49